createdAt,value
2023-04-15T00:00:34.071Z,12.51
2023-04-15T00:03:20.650Z,12.46
2023-04-15T00:05:52.738Z,12.43
2023-04-15T00:08:25.545Z,12.44
2023-04-15T00:10:55.791Z,12.46
2023-04-15T00:13:27.670Z,12.44
2023-04-15T00:15:59.550Z,12.40
2023-04-15T00:18:31.571Z,12.39
2023-04-15T00:21:03.397Z,12.37
2023-04-15T00:23:36.514Z,12.35
2023-04-15T00:26:08.601Z,12.29
2023-04-15T00:28:40.893Z,12.31
2023-04-15T00:31:12.126Z,12.34
2023-04-15T00:33:44.737Z,12.33
2023-04-15T00:36:16.499Z,12.33
2023-04-15T00:38:48.297Z,12.26
2023-04-15T00:41:20.945Z,12.25
2023-04-15T00:43:53.144Z,12.21
2023-04-15T00:46:27.444Z,12.21
2023-04-15T00:48:59.429Z,12.21
2023-04-15T00:51:33.507Z,12.18
2023-04-15T00:54:06.012Z,12.18
2023-04-15T00:56:39.718Z,12.13
2023-04-15T00:59:12.009Z,12.05
2023-04-15T01:01:45.640Z,12.01
2023-04-15T01:04:18.715Z,11.93
2023-04-15T01:06:51.330Z,11.92
2023-04-15T01:09:23.164Z,11.84
2023-04-15T01:11:57.037Z,11.92
2023-04-15T01:14:30.609Z,11.86
2023-04-15T01:17:03.418Z,11.79
2023-04-15T01:19:35.654Z,11.72
2023-04-15T01:22:07.675Z,11.70
2023-04-15T01:24:39.865Z,11.64
2023-04-15T01:27:11.621Z,11.65
2023-04-15T01:29:43.594Z,11.69
2023-04-15T01:32:17.230Z,11.69
2023-04-15T01:34:47.747Z,11.69
2023-04-15T01:37:19.556Z,11.70
2023-04-15T01:39:51.574Z,11.68
2023-04-15T01:42:24.334Z,11.72
2023-04-15T01:44:54.828Z,11.71
2023-04-15T01:47:27.317Z,11.74
2023-04-15T01:49:59.368Z,11.75
2023-04-15T01:52:32.234Z,11.74
2023-04-15T01:55:04.345Z,11.74
2023-04-15T01:57:37.082Z,11.68
2023-04-15T02:00:11.502Z,11.54
2023-04-15T02:02:47.011Z,11.56
2023-04-15T02:05:18.903Z,11.44
2023-04-15T02:07:52.598Z,11.49
2023-04-15T02:10:27.258Z,11.53
2023-04-15T02:12:59.676Z,11.60
2023-04-15T02:15:33.337Z,11.63
2023-04-15T02:18:05.193Z,11.56
2023-04-15T02:20:37.900Z,11.54
2023-04-15T02:23:08.588Z,11.40
2023-04-15T02:25:40.469Z,11.38
2023-04-15T02:28:12.341Z,11.23
2023-04-15T02:30:44.130Z,11.15
2023-04-15T02:33:16.445Z,11.21
2023-04-15T02:35:48.484Z,11.29
2023-04-15T02:38:20.347Z,11.38
2023-04-15T02:40:53.004Z,11.29
2023-04-15T02:43:24.807Z,11.25
2023-04-15T02:45:58.746Z,11.28
2023-04-15T02:48:32.308Z,11.27
2023-04-15T02:51:21.611Z,11.29
2023-04-15T02:53:53.515Z,11.29
2023-04-15T02:56:25.189Z,11.31
2023-04-15T02:58:57.371Z,11.10
2023-04-15T03:01:29.213Z,11.07
2023-04-15T03:04:01.347Z,11.15
2023-04-15T03:06:33.085Z,11.20
2023-04-15T03:09:04.897Z,11.19
2023-04-15T03:11:41.595Z,11.21
2023-04-15T03:14:14.556Z,11.28
2023-04-15T03:16:50.570Z,11.32
2023-04-15T03:19:22.795Z,11.36
2023-04-15T03:21:54.498Z,11.34
2023-04-15T03:24:29.193Z,11.18
2023-04-15T03:27:02.051Z,11.17
2023-04-15T03:29:34.788Z,11.10
2023-04-15T03:32:07.251Z,11.05
2023-04-15T03:34:39.562Z,11.07
2023-04-15T03:37:11.332Z,11.12
2023-04-15T03:39:43.137Z,11.03
2023-04-15T03:42:15.073Z,11.03
2023-04-15T03:44:46.917Z,11.10
2023-04-15T03:47:18.963Z,11.10
2023-04-15T03:49:51.460Z,11.08
2023-04-15T03:52:23.196Z,11.07
2023-04-15T03:54:54.951Z,11.03
2023-04-15T03:57:26.652Z,11.02
2023-04-15T03:59:58.728Z,11.06
2023-04-15T04:02:30.607Z,11.02
2023-04-15T04:05:02.700Z,10.91
2023-04-15T04:07:34.623Z,10.82
2023-04-15T04:10:07.824Z,10.85
2023-04-15T04:12:39.566Z,10.86
2023-04-15T04:15:12.600Z,10.81
2023-04-15T04:17:44.397Z,10.71
2023-04-15T04:20:16.804Z,10.72
2023-04-15T04:22:48.594Z,10.77
2023-04-15T04:25:20.297Z,10.76
2023-04-15T04:27:52.128Z,10.75
2023-04-15T04:30:23.983Z,10.71
2023-04-15T04:32:55.883Z,10.71
2023-04-15T04:35:27.650Z,10.67
2023-04-15T04:37:59.362Z,10.67
2023-04-15T04:40:31.046Z,10.64
2023-04-15T04:43:02.893Z,10.61
2023-04-15T04:45:34.653Z,10.59
2023-04-15T04:48:08.865Z,10.59
2023-04-15T04:50:40.618Z,10.52
2023-04-15T04:53:12.536Z,10.52
2023-04-15T04:55:44.467Z,10.60
2023-04-15T04:58:16.292Z,10.68
2023-04-15T05:00:48.200Z,10.70
2023-04-15T05:03:20.740Z,10.73
2023-04-15T05:05:52.844Z,10.76
2023-04-15T05:08:24.822Z,10.69
2023-04-15T05:10:57.164Z,10.61
2023-04-15T05:13:30.938Z,10.58
2023-04-15T05:16:02.653Z,10.64
2023-04-15T05:18:34.930Z,10.61
2023-04-15T05:21:07.732Z,10.66
2023-04-15T05:23:39.848Z,10.70
2023-04-15T05:26:11.548Z,10.61
2023-04-15T05:28:43.618Z,10.56
2023-04-15T05:31:15.767Z,10.61
2023-04-15T05:33:47.609Z,10.66
2023-04-15T05:36:19.446Z,10.68
2023-04-15T05:38:51.274Z,10.56
2023-04-15T05:41:23.067Z,10.56
2023-04-15T05:43:54.830Z,10.60
2023-04-15T05:46:27.511Z,10.67
2023-04-15T05:49:00.220Z,10.65
2023-04-15T05:51:32.375Z,10.58
2023-04-15T05:54:04.444Z,10.62
2023-04-15T05:56:36.926Z,10.65
2023-04-15T05:59:08.723Z,10.66
2023-04-15T06:01:40.514Z,10.62
2023-04-15T06:04:12.737Z,10.65
2023-04-15T06:06:45.201Z,10.72
2023-04-15T06:09:17.095Z,10.63
2023-04-15T06:11:49.074Z,10.70
2023-04-15T06:14:20.883Z,10.74
2023-04-15T06:16:52.734Z,10.77
2023-04-15T06:19:24.660Z,10.77
2023-04-15T06:21:56.503Z,10.78
2023-04-15T06:24:28.442Z,10.78
2023-04-15T06:27:02.204Z,10.79
2023-04-15T06:29:34.105Z,10.81
2023-04-15T06:32:06.445Z,10.78
2023-04-15T06:34:39.949Z,10.76
2023-04-15T06:37:16.063Z,10.74
2023-04-15T06:39:47.997Z,10.79
2023-04-15T06:42:19.903Z,10.85
2023-04-15T06:44:52.258Z,10.91
2023-04-15T06:47:24.156Z,10.92
2023-04-15T06:49:56.137Z,10.82
2023-04-15T06:52:28.550Z,10.79
2023-04-15T06:55:00.868Z,10.87
2023-04-15T06:57:35.099Z,10.92
2023-04-15T07:00:11.358Z,11.00
2023-04-15T07:02:44.107Z,11.06
2023-04-15T07:05:16.308Z,11.08
2023-04-15T07:07:48.505Z,11.04
2023-04-15T07:10:20.812Z,11.10
2023-04-15T07:12:53.129Z,11.13
2023-04-15T07:15:25.312Z,11.14
2023-04-15T07:17:57.394Z,11.14
2023-04-15T07:20:29.724Z,11.16
2023-04-15T07:23:01.783Z,11.16
2023-04-15T07:25:33.851Z,11.18
2023-04-15T07:28:05.989Z,11.19
2023-04-15T07:30:38.485Z,11.19
2023-04-15T07:33:13.364Z,11.22
2023-04-15T07:35:47.322Z,11.24
2023-04-15T07:38:22.833Z,11.18
2023-04-15T07:40:59.504Z,11.16
2023-04-15T07:43:34.510Z,11.15
2023-04-15T07:46:10.908Z,11.20
2023-04-15T07:48:43.527Z,11.15
2023-04-15T07:51:15.426Z,11.19
2023-04-15T07:53:51.698Z,11.27
2023-04-15T07:56:29.874Z,11.30
2023-04-15T07:59:04.762Z,11.27
2023-04-15T08:01:39.100Z,11.23
2023-04-15T08:04:12.384Z,11.26
2023-04-15T08:06:48.325Z,11.29
2023-04-15T08:09:21.031Z,11.35
2023-04-15T08:11:53.585Z,11.39
2023-04-15T08:14:25.577Z,11.33
2023-04-15T08:16:57.967Z,11.30
2023-04-15T08:19:30.879Z,11.31
2023-04-15T08:22:02.785Z,11.33
2023-04-15T08:24:35.256Z,11.31
2023-04-15T08:27:08.172Z,11.31
2023-04-15T08:29:40.772Z,11.32
2023-04-15T08:32:12.776Z,11.38
2023-04-15T08:34:44.843Z,11.37
2023-04-15T08:37:16.669Z,11.43
2023-04-15T08:39:48.640Z,11.50
2023-04-15T08:42:28.973Z,11.48
2023-04-15T08:45:04.983Z,11.42
2023-04-15T08:47:39.631Z,11.45
2023-04-15T08:50:13.628Z,11.44
2023-04-15T08:52:45.940Z,11.48
2023-04-15T08:55:19.600Z,11.49
2023-04-15T08:57:51.982Z,11.54
2023-04-15T09:00:24.963Z,11.55
2023-04-15T09:02:57.700Z,11.58
2023-04-15T09:05:27.983Z,11.64
2023-04-15T09:07:59.963Z,11.70
2023-04-15T09:10:33.100Z,11.62
2023-04-15T09:13:06.211Z,11.69
2023-04-15T09:15:40.453Z,11.77
2023-04-15T09:18:15.650Z,11.83
2023-04-15T09:20:49.757Z,11.89
2023-04-15T09:23:23.122Z,11.95
2023-04-15T09:25:55.577Z,11.97
2023-04-15T09:28:30.946Z,11.99
2023-04-15T09:31:04.122Z,12.00
2023-04-15T09:33:36.238Z,11.99
2023-04-15T09:36:09.546Z,12.04
2023-04-15T09:38:58.108Z,11.98
2023-04-15T09:41:31.818Z,12.02
2023-04-15T09:44:05.486Z,11.99
2023-04-15T09:46:47.322Z,12.01
2023-04-15T09:49:19.564Z,12.10
2023-04-15T09:52:04.006Z,12.17
2023-04-15T09:54:41.600Z,12.21
2023-04-15T09:57:13.573Z,12.34
2023-04-15T09:59:45.685Z,12.43
2023-04-15T10:02:20.155Z,12.42
2023-04-15T10:04:53.754Z,12.50
2023-04-15T10:07:27.537Z,12.63
2023-04-15T10:10:03.708Z,12.72
2023-04-15T10:12:38.330Z,12.73
2023-04-15T10:15:18.335Z,12.69
2023-04-15T10:17:52.211Z,12.62
2023-04-15T10:20:26.351Z,12.55
2023-04-15T10:22:58.902Z,12.45
2023-04-15T10:25:31.771Z,12.39
2023-04-15T10:28:04.563Z,12.32
2023-04-15T10:30:35.754Z,12.28
2023-04-15T10:33:10.197Z,12.25
2023-04-15T10:35:43.623Z,12.19
2023-04-15T10:38:38.509Z,12.16
2023-04-15T10:41:22.295Z,12.12
2023-04-15T10:43:56.197Z,12.06
2023-04-15T10:46:39.606Z,12.03
2023-04-15T10:49:13.172Z,12.04
2023-04-15T10:51:47.273Z,12.04
2023-04-15T10:54:33.205Z,12.01
2023-04-15T10:57:16.257Z,12.04
2023-04-15T11:00:04.600Z,12.05
2023-04-15T11:02:45.266Z,12.11
2023-04-15T11:05:18.586Z,12.15
2023-04-15T11:07:56.233Z,12.16
2023-04-15T11:10:57.559Z,12.14
2023-04-15T11:13:34.410Z,12.08
2023-04-15T11:16:07.221Z,12.07
2023-04-15T11:18:39.454Z,12.01
2023-04-15T11:21:11.861Z,12.01
2023-04-15T11:23:47.010Z,12.02
2023-04-15T11:26:19.745Z,11.99
2023-04-15T11:28:51.936Z,11.95
2023-04-15T11:31:23.986Z,11.91
2023-04-15T11:34:01.769Z,11.87
2023-04-15T11:36:33.906Z,11.93
2023-04-15T11:39:09.788Z,11.98
2023-04-15T11:41:44.356Z,11.98
2023-04-15T11:44:21.597Z,11.96
2023-04-15T11:46:53.576Z,11.93
2023-04-15T11:49:33.994Z,11.89
2023-04-15T11:52:13.393Z,11.86
2023-04-15T11:54:45.876Z,11.86
2023-04-15T11:57:17.941Z,11.84
2023-04-15T11:59:49.979Z,11.84
2023-04-15T12:02:22.549Z,11.89
2023-04-15T12:05:06.471Z,11.93
2023-04-15T12:08:01.787Z,11.87
2023-04-15T12:10:35.832Z,11.92
2023-04-15T12:13:10.814Z,11.87
2023-04-15T12:15:43.812Z,11.84
2023-04-15T12:18:21.541Z,11.85
2023-04-15T12:20:54.740Z,11.84
2023-04-15T12:23:27.862Z,11.79
2023-04-15T12:26:05.990Z,11.76
2023-04-15T12:28:42.247Z,11.74
2023-04-15T12:31:15.791Z,11.74
2023-04-15T12:33:50.983Z,11.74
2023-04-15T12:36:23.112Z,11.69
2023-04-15T12:38:55.097Z,11.71
2023-04-15T12:41:27.844Z,11.71
2023-04-15T12:44:00.319Z,11.72
2023-04-15T12:46:32.736Z,11.72
2023-04-15T12:49:04.991Z,11.69
2023-04-15T12:51:37.013Z,11.60
2023-04-15T12:54:09.296Z,11.61
2023-04-15T12:56:41.332Z,11.63
2023-04-15T12:59:13.388Z,11.64
2023-04-15T13:01:45.933Z,11.63
2023-04-15T13:04:17.074Z,11.68
2023-04-15T13:06:50.165Z,11.68
2023-04-15T13:09:22.230Z,11.77
2023-04-15T13:11:54.737Z,11.81
2023-04-15T13:14:25.542Z,11.83
2023-04-15T13:16:58.117Z,11.88
2023-04-15T13:19:29.070Z,11.91
2023-04-15T13:22:01.159Z,11.93
2023-04-15T13:24:33.459Z,11.95
2023-04-15T13:27:05.829Z,11.98
2023-04-15T13:29:38.688Z,11.99
2023-04-15T13:32:11.296Z,11.98
2023-04-15T13:34:43.601Z,11.99
2023-04-15T13:37:15.550Z,12.01
2023-04-15T13:39:47.579Z,12.02
2023-04-15T13:42:19.558Z,12.02
2023-04-15T13:44:52.576Z,12.03
2023-04-15T13:47:24.728Z,12.04
2023-04-15T13:49:57.216Z,12.09
2023-04-15T13:52:29.200Z,12.13
2023-04-15T13:55:02.006Z,12.16
2023-04-15T13:57:51.616Z,12.21
2023-04-15T14:00:23.629Z,12.27
2023-04-15T14:02:56.292Z,12.31
2023-04-15T14:05:27.316Z,12.37
2023-04-15T14:08:00.347Z,12.32
2023-04-15T14:10:34.165Z,12.39
2023-04-15T14:13:06.226Z,12.41
2023-04-15T14:15:38.125Z,12.37
2023-04-15T14:18:10.136Z,12.32
2023-04-15T14:20:42.238Z,12.38
2023-04-15T14:23:14.335Z,12.44
2023-04-15T14:25:48.259Z,12.46
2023-04-15T14:28:21.941Z,12.46
2023-04-15T14:30:54.562Z,12.47
2023-04-15T14:33:27.449Z,12.46
2023-04-15T14:35:59.590Z,12.46
2023-04-15T14:38:33.750Z,12.52
2023-04-15T14:41:05.805Z,12.56
2023-04-15T14:43:38.115Z,12.61
2023-04-15T14:46:11.685Z,12.62
2023-04-15T14:48:43.878Z,12.61
2023-04-15T14:51:16.312Z,12.60
2023-04-15T14:53:48.401Z,12.61
2023-04-15T14:56:20.447Z,12.59
2023-04-15T14:58:54.145Z,12.54
2023-04-15T15:01:26.490Z,12.54
2023-04-15T15:03:58.699Z,12.56
2023-04-15T15:06:31.491Z,12.54
2023-04-15T15:09:02.348Z,12.51
2023-04-15T15:11:34.557Z,12.49
2023-04-15T15:14:06.919Z,12.47
2023-04-15T15:16:39.966Z,12.48
2023-04-15T15:19:12.998Z,12.49
2023-04-15T15:21:45.468Z,12.53
2023-04-15T15:24:17.552Z,12.55
2023-04-15T15:26:49.648Z,12.56
2023-04-15T15:29:21.728Z,12.55
2023-04-15T15:31:53.908Z,12.60
2023-04-15T15:34:26.011Z,12.58
2023-04-15T15:36:58.140Z,12.57
2023-04-15T15:39:30.547Z,12.52
2023-04-15T15:42:02.927Z,12.55
2023-04-15T15:44:36.383Z,12.55
2023-04-15T15:47:08.727Z,12.55
2023-04-15T15:49:42.618Z,12.52
2023-04-15T15:52:14.885Z,12.41
2023-04-15T15:54:46.890Z,12.37
2023-04-15T15:57:18.934Z,12.40
2023-04-15T16:00:04.966Z,12.39
2023-04-15T16:05:18.843Z,12.35
2023-04-15T16:07:50.861Z,12.35
2023-04-15T16:10:22.877Z,12.34
2023-04-15T16:12:55.369Z,12.34
2023-04-15T16:15:28.159Z,12.31
2023-04-15T16:18:00.343Z,12.30
2023-04-15T16:20:32.487Z,12.27
2023-04-15T16:23:12.762Z,12.20
2023-04-15T16:25:46.149Z,12.18
2023-04-15T16:28:26.306Z,12.04
2023-04-15T16:30:59.408Z,11.98
2023-04-15T16:33:31.923Z,11.98
2023-04-15T16:36:04.033Z,12.01
2023-04-15T16:38:36.228Z,12.00
2023-04-15T16:41:08.336Z,12.02
2023-04-15T16:43:40.361Z,12.02
2023-04-15T16:46:12.804Z,12.00
2023-04-15T16:48:44.727Z,12.00
2023-04-15T16:51:16.735Z,11.98
2023-04-15T16:53:49.673Z,11.97
2023-04-15T16:56:22.017Z,11.87
2023-04-15T16:58:54.160Z,11.89
2023-04-15T17:01:26.513Z,11.83
2023-04-15T17:03:58.974Z,11.85
2023-04-15T17:06:31.971Z,11.82
2023-04-15T17:09:02.464Z,11.83
2023-04-15T17:11:35.086Z,11.82
2023-04-15T17:14:08.007Z,11.77
2023-04-15T17:16:40.179Z,11.72
2023-04-15T17:19:11.372Z,11.73
2023-04-15T17:21:43.219Z,11.71
2023-04-15T17:24:15.159Z,11.62
2023-04-15T17:26:47.974Z,11.67
2023-04-15T17:29:18.377Z,11.70
2023-04-15T17:31:50.714Z,11.70
2023-04-15T17:34:23.150Z,11.71
2023-04-15T17:36:55.304Z,11.69
2023-04-15T17:39:27.965Z,11.65
2023-04-15T17:42:00.917Z,11.65
2023-04-15T17:44:33.056Z,11.63
2023-04-15T17:47:05.039Z,11.64
2023-04-15T17:49:38.315Z,11.65
2023-04-15T17:52:11.282Z,11.63
2023-04-15T17:54:43.236Z,11.61
2023-04-15T17:57:15.609Z,11.59
2023-04-15T17:59:48.706Z,11.52
2023-04-15T18:02:20.983Z,11.48
2023-04-15T18:04:53.734Z,11.44
2023-04-15T18:07:26.548Z,11.49
2023-04-15T18:09:58.853Z,11.49
2023-04-15T18:12:30.939Z,11.55
2023-04-15T18:15:04.352Z,11.54
2023-04-15T18:17:36.760Z,11.45
2023-04-15T18:20:10.407Z,11.42
2023-04-15T18:22:43.068Z,11.43
2023-04-15T18:25:15.515Z,11.38
2023-04-15T18:27:47.709Z,11.25
2023-04-15T18:30:19.949Z,11.21
2023-04-15T18:32:52.518Z,11.17
2023-04-15T18:35:24.627Z,11.21
2023-04-15T18:37:57.458Z,11.25
2023-04-15T18:40:29.892Z,11.26
2023-04-15T18:43:02.079Z,11.31
2023-04-15T18:45:34.229Z,11.28
2023-04-15T18:48:07.413Z,11.32
2023-04-15T18:50:39.605Z,11.36
2023-04-15T18:53:12.542Z,11.38
2023-04-15T18:55:44.541Z,11.32
2023-04-15T18:58:16.479Z,11.24
2023-04-15T19:00:49.735Z,11.27
2023-04-15T19:03:22.038Z,11.33
2023-04-15T19:05:52.673Z,11.36
2023-04-15T19:08:25.107Z,11.38
2023-04-15T19:10:57.448Z,11.30
2023-04-15T19:13:29.874Z,11.22
2023-04-15T19:16:02.131Z,11.15
2023-04-15T19:18:34.675Z,11.12
2023-04-15T19:21:06.765Z,11.16
2023-04-15T19:23:39.232Z,11.24
2023-04-15T19:26:11.432Z,11.29
2023-04-15T19:28:43.703Z,11.32
2023-04-15T19:31:15.707Z,11.21
2023-04-15T19:33:48.046Z,11.18
2023-04-15T19:36:20.256Z,11.15
2023-04-15T19:38:52.567Z,11.13
2023-04-15T19:41:25.032Z,11.20
2023-04-15T19:43:56.918Z,11.23
2023-04-15T19:46:29.035Z,11.27
2023-04-15T19:49:02.133Z,11.26
2023-04-15T19:51:34.306Z,11.21
2023-04-15T19:54:06.991Z,11.11
2023-04-15T19:56:38.886Z,11.00
2023-04-15T19:59:14.313Z,11.09
2023-04-15T20:01:46.399Z,11.03
2023-04-15T20:04:18.374Z,11.11
2023-04-15T20:06:50.533Z,11.17
2023-04-15T20:09:22.738Z,11.21
2023-04-15T20:12:44.801Z,11.23
2023-04-15T20:14:46.997Z,11.26
2023-04-15T20:17:19.431Z,11.27
2023-04-15T20:19:51.290Z,11.29
2023-04-15T20:22:23.454Z,11.29
2023-04-15T20:24:55.354Z,11.26
2023-04-15T20:27:27.209Z,11.23
2023-04-15T20:29:59.539Z,11.22
2023-04-15T20:32:33.179Z,11.22
2023-04-15T20:35:06.987Z,11.23
2023-04-15T20:37:40.712Z,11.25
2023-04-15T20:40:15.338Z,11.26
2023-04-15T20:42:47.324Z,11.22
2023-04-15T20:45:19.348Z,11.26
2023-04-15T20:47:51.387Z,11.28
2023-04-15T20:50:23.453Z,11.27
2023-04-15T20:52:55.696Z,11.28
2023-04-15T20:55:29.546Z,11.30
2023-04-15T20:58:02.825Z,11.32
2023-04-15T21:00:35.059Z,11.32
2023-04-15T21:03:07.912Z,11.32
2023-04-15T21:05:40.095Z,11.31
2023-04-15T21:08:12.853Z,11.32
2023-04-15T21:10:43.220Z,11.33
2023-04-15T21:13:17.649Z,11.32
2023-04-15T21:15:54.263Z,11.33
2023-04-15T21:18:26.684Z,11.33
2023-04-15T21:21:02.719Z,11.32
2023-04-15T21:23:36.066Z,11.28
2023-04-15T21:26:08.026Z,11.25
2023-04-15T21:28:40.093Z,11.26
2023-04-15T21:31:12.365Z,11.26
2023-04-15T21:33:44.271Z,11.25
2023-04-15T21:36:16.447Z,11.26
2023-04-15T21:38:48.390Z,11.28
2023-04-15T21:41:20.828Z,11.26
2023-04-15T21:43:52.951Z,11.26
2023-04-15T21:46:32.880Z,11.26
2023-04-15T21:49:07.045Z,11.27
2023-04-15T21:51:39.313Z,11.19
2023-04-15T21:54:11.578Z,11.12
2023-04-15T21:56:44.195Z,11.09
2023-04-15T21:59:16.357Z,11.06
2023-04-15T22:01:48.699Z,11.06
2023-04-15T22:04:20.794Z,10.98
2023-04-15T22:06:55.702Z,10.96
2023-04-15T22:09:27.554Z,10.98
2023-04-15T22:12:01.329Z,11.03
2023-04-15T22:14:34.061Z,11.03
2023-04-15T22:17:04.484Z,11.01
2023-04-15T22:19:36.516Z,11.05
2023-04-15T22:22:08.598Z,11.03
2023-04-15T22:24:40.651Z,11.01
2023-04-15T22:27:12.757Z,11.00
2023-04-15T22:29:45.032Z,10.94
2023-04-15T22:32:16.948Z,10.86
2023-04-15T22:34:48.881Z,10.83
2023-04-15T22:37:21.005Z,10.84
2023-04-15T22:39:52.950Z,10.86
2023-04-15T22:42:25.203Z,10.93
2023-04-15T22:44:57.205Z,10.88
2023-04-15T22:47:29.214Z,10.86
2023-04-15T22:50:01.319Z,10.90
2023-04-15T22:52:33.836Z,10.97
2023-04-15T22:55:06.707Z,11.02
2023-04-15T22:57:36.998Z,11.05
2023-04-15T23:00:10.790Z,11.00
2023-04-15T23:02:43.080Z,10.96
2023-04-15T23:05:15.250Z,10.93
2023-04-15T23:07:47.235Z,10.91
2023-04-15T23:10:19.943Z,10.93
2023-04-15T23:12:50.940Z,10.97
2023-04-15T23:15:23.603Z,10.93
2023-04-15T23:17:54.563Z,10.80
2023-04-15T23:20:26.649Z,10.77
2023-04-15T23:22:59.167Z,10.72
2023-04-15T23:25:31.356Z,10.67
2023-04-15T23:28:03.324Z,10.71
2023-04-15T23:30:35.350Z,10.67
2023-04-15T23:33:07.497Z,10.61
2023-04-15T23:35:39.673Z,10.59
2023-04-15T23:38:11.939Z,10.56
2023-04-15T23:40:44.147Z,10.57
2023-04-15T23:43:16.450Z,10.63
2023-04-15T23:45:48.627Z,10.66
2023-04-15T23:48:23.769Z,10.69
2023-04-15T23:50:55.958Z,10.67
2023-04-15T23:53:29.838Z,10.72
2023-04-15T23:56:01.865Z,10.75
2023-04-15T23:58:34.681Z,10.74
